sensor_id;sensor_type;location;lat;lon;timestamp;P1;durP1;ratioP1;P2;durP2;ratioP2
24637;SDS011;12773;50.162;8.548;2023-05-07T00:02:29;2.58;;;1.40;;
24637;SDS011;12773;50.162;8.548;2023-05-07T00:05:18;2.98;;;1.27;;
24637;SDS011;12773;50.162;8.548;2023-05-07T00:08:05;2.40;;;1.30;;
24637;SDS011;12773;50.162;8.548;2023-05-07T00:10:52;2.60;;;1.20;;
24637;SDS011;12773;50.162;8.548;2023-05-07T00:13:40;2.27;;;1.40;;
24637;SDS011;12773;50.162;8.548;2023-05-07T00:16:27;1.87;;;1.45;;
24637;SDS011;12773;50.162;8.548;2023-05-07T00:19:14;2.10;;;1.30;;
24637;SDS011;12773;50.162;8.548;2023-05-07T00:22:02;3.95;;;1.45;;
24637;SDS011;12773;50.162;8.548;2023-05-07T00:24:49;3.12;;;1.47;;
24637;SDS011;12773;50.162;8.548;2023-05-07T00:27:37;3.22;;;1.40;;
24637;SDS011;12773;50.162;8.548;2023-05-07T00:30:25;3.70;;;1.10;;
24637;SDS011;12773;50.162;8.548;2023-05-07T00:33:15;2.17;;;1.10;;
24637;SDS011;12773;50.162;8.548;2023-05-07T00:36:02;2.05;;;1.22;;
24637;SDS011;12773;50.162;8.548;2023-05-07T00:38:49;1.82;;;1.10;;
24637;SDS011;12773;50.162;8.548;2023-05-07T00:41:37;2.15;;;1.10;;
24637;SDS011;12773;50.162;8.548;2023-05-07T00:44:25;2.42;;;1.20;;
24637;SDS011;12773;50.162;8.548;2023-05-07T00:47:12;3.55;;;1.40;;
24637;SDS011;12773;50.162;8.548;2023-05-07T00:50:00;1.45;;;1.10;;
24637;SDS011;12773;50.162;8.548;2023-05-07T00:52:48;2.08;;;1.25;;
24637;SDS011;12773;50.162;8.548;2023-05-07T00:55:36;1.87;;;1.20;;
24637;SDS011;12773;50.162;8.548;2023-05-07T00:58:24;2.20;;;1.22;;
24637;SDS011;12773;50.162;8.548;2023-05-07T01:01:11;2.10;;;1.30;;
24637;SDS011;12773;50.162;8.548;2023-05-07T01:03:59;3.22;;;1.27;;
24637;SDS011;12773;50.162;8.548;2023-05-07T01:06:47;5.70;;;1.50;;
24637;SDS011;12773;50.162;8.548;2023-05-07T01:09:35;1.85;;;1.17;;
24637;SDS011;12773;50.162;8.548;2023-05-07T01:12:24;1.77;;;1.27;;
24637;SDS011;12773;50.162;8.548;2023-05-07T01:15:13;2.77;;;1.20;;
24637;SDS011;12773;50.162;8.548;2023-05-07T01:18:01;2.80;;;1.15;;
24637;SDS011;12773;50.162;8.548;2023-05-07T01:20:48;2.33;;;1.30;;
24637;SDS011;12773;50.162;8.548;2023-05-07T01:23:36;1.82;;;0.98;;
24637;SDS011;12773;50.162;8.548;2023-05-07T01:26:25;1.27;;;1.10;;
24637;SDS011;12773;50.162;8.548;2023-05-07T01:29:12;1.65;;;1.10;;
24637;SDS011;12773;50.162;8.548;2023-05-07T01:32:00;2.85;;;1.20;;
24637;SDS011;12773;50.162;8.548;2023-05-07T01:34:48;4.80;;;1.45;;
24637;SDS011;12773;50.162;8.548;2023-05-07T01:37:39;2.77;;;1.40;;
24637;SDS011;12773;50.162;8.548;2023-05-07T01:40:27;4.08;;;1.25;;
24637;SDS011;12773;50.162;8.548;2023-05-07T01:43:14;2.62;;;1.37;;
24637;SDS011;12773;50.162;8.548;2023-05-07T01:46:01;3.62;;;1.27;;
24637;SDS011;12773;50.162;8.548;2023-05-07T01:48:49;3.08;;;1.00;;
24637;SDS011;12773;50.162;8.548;2023-05-07T01:51:38;2.72;;;1.40;;
24637;SDS011;12773;50.162;8.548;2023-05-07T01:54:27;4.37;;;1.50;;
24637;SDS011;12773;50.162;8.548;2023-05-07T01:57:14;2.05;;;1.22;;
24637;SDS011;12773;50.162;8.548;2023-05-07T02:00:02;2.05;;;1.42;;
24637;SDS011;12773;50.162;8.548;2023-05-07T02:02:50;3.95;;;1.50;;
24637;SDS011;12773;50.162;8.548;2023-05-07T02:05:38;3.30;;;1.70;;
24637;SDS011;12773;50.162;8.548;2023-05-07T02:08:26;2.60;;;1.42;;
24637;SDS011;12773;50.162;8.548;2023-05-07T02:11:13;2.27;;;1.27;;
24637;SDS011;12773;50.162;8.548;2023-05-07T02:14:01;3.45;;;1.52;;
24637;SDS011;12773;50.162;8.548;2023-05-07T02:16:48;2.75;;;1.60;;
24637;SDS011;12773;50.162;8.548;2023-05-07T02:19:35;3.22;;;1.42;;
24637;SDS011;12773;50.162;8.548;2023-05-07T02:22:23;1.87;;;1.30;;
24637;SDS011;12773;50.162;8.548;2023-05-07T02:25:10;2.52;;;1.42;;
24637;SDS011;12773;50.162;8.548;2023-05-07T02:27:59;3.42;;;1.70;;
24637;SDS011;12773;50.162;8.548;2023-05-07T02:30:47;1.52;;;1.27;;
24637;SDS011;12773;50.162;8.548;2023-05-07T02:33:34;1.85;;;1.17;;
24637;SDS011;12773;50.162;8.548;2023-05-07T02:36:22;4.03;;;1.70;;
24637;SDS011;12773;50.162;8.548;2023-05-07T02:39:09;3.35;;;1.27;;
24637;SDS011;12773;50.162;8.548;2023-05-07T02:41:57;3.72;;;1.45;;
24637;SDS011;12773;50.162;8.548;2023-05-07T02:44:44;2.10;;;1.45;;
24637;SDS011;12773;50.162;8.548;2023-05-07T02:47:31;2.47;;;1.40;;
24637;SDS011;12773;50.162;8.548;2023-05-07T02:50:19;2.22;;;1.37;;
24637;SDS011;12773;50.162;8.548;2023-05-07T02:53:06;2.92;;;1.32;;
24637;SDS011;12773;50.162;8.548;2023-05-07T02:55:55;3.98;;;1.40;;
24637;SDS011;12773;50.162;8.548;2023-05-07T02:58:43;3.85;;;1.70;;
24637;SDS011;12773;50.162;8.548;2023-05-07T03:01:30;1.75;;;1.60;;
24637;SDS011;12773;50.162;8.548;2023-05-07T03:04:17;4.40;;;1.50;;
24637;SDS011;12773;50.162;8.548;2023-05-07T03:07:04;1.62;;;1.42;;
24637;SDS011;12773;50.162;8.548;2023-05-07T03:09:52;2.42;;;1.60;;
24637;SDS011;12773;50.162;8.548;2023-05-07T03:12:39;2.52;;;1.65;;
24637;SDS011;12773;50.162;8.548;2023-05-07T03:15:27;2.75;;;1.45;;
24637;SDS011;12773;50.162;8.548;2023-05-07T03:18:14;2.52;;;1.60;;
24637;SDS011;12773;50.162;8.548;2023-05-07T03:21:02;4.08;;;1.62;;
24637;SDS011;12773;50.162;8.548;2023-05-07T03:23:50;1.92;;;1.30;;
24637;SDS011;12773;50.162;8.548;2023-05-07T03:26:37;3.65;;;1.75;;
24637;SDS011;12773;50.162;8.548;2023-05-07T03:29:24;2.45;;;1.40;;
24637;SDS011;12773;50.162;8.548;2023-05-07T03:32:12;2.20;;;1.40;;
24637;SDS011;12773;50.162;8.548;2023-05-07T03:35:00;2.95;;;1.60;;
24637;SDS011;12773;50.162;8.548;2023-05-07T03:37:48;2.70;;;1.50;;
24637;SDS011;12773;50.162;8.548;2023-05-07T03:40:36;3.87;;;1.60;;
24637;SDS011;12773;50.162;8.548;2023-05-07T03:43:23;3.33;;;1.77;;
24637;SDS011;12773;50.162;8.548;2023-05-07T03:46:11;2.77;;;1.60;;
24637;SDS011;12773;50.162;8.548;2023-05-07T03:48:58;2.42;;;1.40;;
24637;SDS011;12773;50.162;8.548;2023-05-07T03:51:46;4.95;;;1.40;;
24637;SDS011;12773;50.162;8.548;2023-05-07T03:54:33;5.42;;;1.47;;
24637;SDS011;12773;50.162;8.548;2023-05-07T03:57:21;2.77;;;1.60;;
24637;SDS011;12773;50.162;8.548;2023-05-07T04:00:08;3.10;;;1.47;;
24637;SDS011;12773;50.162;8.548;2023-05-07T04:02:57;2.72;;;1.50;;
24637;SDS011;12773;50.162;8.548;2023-05-07T04:05:44;1.92;;;1.30;;
24637;SDS011;12773;50.162;8.548;2023-05-07T04:08:32;2.95;;;1.40;;
24637;SDS011;12773;50.162;8.548;2023-05-07T04:11:20;1.82;;;1.50;;
24637;SDS011;12773;50.162;8.548;2023-05-07T04:14:07;2.08;;;1.52;;
24637;SDS011;12773;50.162;8.548;2023-05-07T04:16:55;2.00;;;1.50;;
24637;SDS011;12773;50.162;8.548;2023-05-07T04:19:42;2.83;;;1.22;;
24637;SDS011;12773;50.162;8.548;2023-05-07T04:22:31;3.62;;;1.20;;
24637;SDS011;12773;50.162;8.548;2023-05-07T04:25:18;2.30;;;1.60;;
24637;SDS011;12773;50.162;8.548;2023-05-07T04:28:05;2.58;;;1.52;;
24637;SDS011;12773;50.162;8.548;2023-05-07T04:30:53;2.58;;;1.60;;
24637;SDS011;12773;50.162;8.548;2023-05-07T04:33:41;4.78;;;1.60;;
24637;SDS011;12773;50.162;8.548;2023-05-07T04:36:28;1.80;;;1.52;;
24637;SDS011;12773;50.162;8.548;2023-05-07T04:39:18;3.67;;;1.45;;
24637;SDS011;12773;50.162;8.548;2023-05-07T04:42:06;2.75;;;1.52;;
24637;SDS011;12773;50.162;8.548;2023-05-07T04:44:54;2.40;;;1.60;;
24637;SDS011;12773;50.162;8.548;2023-05-07T04:47:42;2.58;;;1.45;;
24637;SDS011;12773;50.162;8.548;2023-05-07T04:50:29;2.87;;;1.87;;
24637;SDS011;12773;50.162;8.548;2023-05-07T04:53:16;4.67;;;1.62;;
24637;SDS011;12773;50.162;8.548;2023-05-07T04:56:04;2.45;;;1.60;;
24637;SDS011;12773;50.162;8.548;2023-05-07T04:58:52;2.45;;;1.60;;
24637;SDS011;12773;50.162;8.548;2023-05-07T05:01:39;4.50;;;1.57;;
24637;SDS011;12773;50.162;8.548;2023-05-07T05:04:27;3.50;;;1.45;;
24637;SDS011;12773;50.162;8.548;2023-05-07T05:07:15;3.75;;;1.65;;
24637;SDS011;12773;50.162;8.548;2023-05-07T05:10:02;4.37;;;1.62;;
24637;SDS011;12773;50.162;8.548;2023-05-07T05:12:51;2.72;;;1.57;;
24637;SDS011;12773;50.162;8.548;2023-05-07T05:15:39;4.90;;;1.65;;
24637;SDS011;12773;50.162;8.548;2023-05-07T05:18:26;3.92;;;1.57;;
24637;SDS011;12773;50.162;8.548;2023-05-07T05:21:14;2.15;;;1.40;;
24637;SDS011;12773;50.162;8.548;2023-05-07T05:24:01;2.58;;;1.60;;
24637;SDS011;12773;50.162;8.548;2023-05-07T05:26:49;1.92;;;1.72;;
24637;SDS011;12773;50.162;8.548;2023-05-07T05:29:38;2.20;;;1.60;;
24637;SDS011;12773;50.162;8.548;2023-05-07T05:32:26;2.05;;;1.70;;
24637;SDS011;12773;50.162;8.548;2023-05-07T05:35:13;3.40;;;1.60;;
24637;SDS011;12773;50.162;8.548;2023-05-07T05:38:01;3.60;;;1.92;;
24637;SDS011;12773;50.162;8.548;2023-05-07T05:40:49;5.45;;;1.57;;
24637;SDS011;12773;50.162;8.548;2023-05-07T05:43:36;3.33;;;1.80;;
24637;SDS011;12773;50.162;8.548;2023-05-07T05:46:23;2.60;;;1.50;;
24637;SDS011;12773;50.162;8.548;2023-05-07T05:49:11;2.33;;;1.70;;
24637;SDS011;12773;50.162;8.548;2023-05-07T05:51:59;3.00;;;1.60;;
24637;SDS011;12773;50.162;8.548;2023-05-07T05:54:46;3.62;;;1.72;;
24637;SDS011;12773;50.162;8.548;2023-05-07T05:57:34;2.25;;;1.62;;
24637;SDS011;12773;50.162;8.548;2023-05-07T06:00:22;3.55;;;1.90;;
24637;SDS011;12773;50.162;8.548;2023-05-07T06:03:09;3.72;;;1.98;;
24637;SDS011;12773;50.162;8.548;2023-05-07T06:05:58;2.20;;;1.60;;
24637;SDS011;12773;50.162;8.548;2023-05-07T06:08:46;2.98;;;1.72;;
24637;SDS011;12773;50.162;8.548;2023-05-07T06:11:33;3.55;;;1.80;;
24637;SDS011;12773;50.162;8.548;2023-05-07T06:14:20;3.15;;;1.95;;
24637;SDS011;12773;50.162;8.548;2023-05-07T06:17:08;2.33;;;1.70;;
24637;SDS011;12773;50.162;8.548;2023-05-07T06:19:55;3.47;;;1.98;;
24637;SDS011;12773;50.162;8.548;2023-05-07T06:22:42;4.05;;;1.90;;
24637;SDS011;12773;50.162;8.548;2023-05-07T06:25:30;2.75;;;1.72;;
24637;SDS011;12773;50.162;8.548;2023-05-07T06:28:17;5.12;;;1.90;;
24637;SDS011;12773;50.162;8.548;2023-05-07T06:31:18;2.67;;;1.92;;
24637;SDS011;12773;50.162;8.548;2023-05-07T06:34:09;2.47;;;1.92;;
24637;SDS011;12773;50.162;8.548;2023-05-07T06:36:58;4.97;;;2.55;;
24637;SDS011;12773;50.162;8.548;2023-05-07T06:39:45;2.95;;;2.10;;
24637;SDS011;12773;50.162;8.548;2023-05-07T06:42:33;2.87;;;2.20;;
24637;SDS011;12773;50.162;8.548;2023-05-07T06:45:22;2.75;;;2.00;;
24637;SDS011;12773;50.162;8.548;2023-05-07T06:48:10;4.95;;;2.60;;
24637;SDS011;12773;50.162;8.548;2023-05-07T06:50:58;3.60;;;2.25;;
24637;SDS011;12773;50.162;8.548;2023-05-07T06:53:46;2.62;;;2.27;;
24637;SDS011;12773;50.162;8.548;2023-05-07T06:56:33;4.22;;;2.42;;
24637;SDS011;12773;50.162;8.548;2023-05-07T06:59:20;4.78;;;2.70;;
24637;SDS011;12773;50.162;8.548;2023-05-07T07:02:08;4.22;;;2.70;;
24637;SDS011;12773;50.162;8.548;2023-05-07T07:04:55;4.00;;;2.50;;
24637;SDS011;12773;50.162;8.548;2023-05-07T07:07:42;2.80;;;2.35;;
24637;SDS011;12773;50.162;8.548;2023-05-07T07:10:30;3.67;;;2.40;;
24637;SDS011;12773;50.162;8.548;2023-05-07T07:13:17;3.10;;;2.35;;
24637;SDS011;12773;50.162;8.548;2023-05-07T07:16:05;3.62;;;2.60;;
24637;SDS011;12773;50.162;8.548;2023-05-07T07:18:52;9.18;;;2.80;;
24637;SDS011;12773;50.162;8.548;2023-05-07T07:21:40;3.95;;;2.60;;
24637;SDS011;12773;50.162;8.548;2023-05-07T07:24:28;3.52;;;2.50;;
24637;SDS011;12773;50.162;8.548;2023-05-07T07:27:15;4.37;;;2.50;;
24637;SDS011;12773;50.162;8.548;2023-05-07T07:30:02;3.37;;;2.42;;
24637;SDS011;12773;50.162;8.548;2023-05-07T07:32:50;5.03;;;2.37;;
24637;SDS011;12773;50.162;8.548;2023-05-07T07:35:38;5.00;;;2.75;;
24637;SDS011;12773;50.162;8.548;2023-05-07T07:38:25;3.20;;;2.90;;
24637;SDS011;12773;50.162;8.548;2023-05-07T07:41:13;3.47;;;2.40;;
24637;SDS011;12773;50.162;8.548;2023-05-07T07:44:00;2.85;;;2.40;;
24637;SDS011;12773;50.162;8.548;2023-05-07T07:46:49;4.62;;;2.87;;
24637;SDS011;12773;50.162;8.548;2023-05-07T07:49:36;8.70;;;2.87;;
24637;SDS011;12773;50.162;8.548;2023-05-07T07:52:24;3.27;;;2.70;;
24637;SDS011;12773;50.162;8.548;2023-05-07T07:55:11;4.35;;;2.70;;
24637;SDS011;12773;50.162;8.548;2023-05-07T07:57:59;3.42;;;2.98;;
24637;SDS011;12773;50.162;8.548;2023-05-07T08:00:47;4.83;;;3.00;;
24637;SDS011;12773;50.162;8.548;2023-05-07T08:03:34;6.03;;;3.27;;
24637;SDS011;12773;50.162;8.548;2023-05-07T08:06:21;3.30;;;2.67;;
24637;SDS011;12773;50.162;8.548;2023-05-07T08:09:09;4.40;;;2.75;;
24637;SDS011;12773;50.162;8.548;2023-05-07T08:11:56;4.00;;;2.80;;
24637;SDS011;12773;50.162;8.548;2023-05-07T08:14:43;4.90;;;3.08;;
24637;SDS011;12773;50.162;8.548;2023-05-07T08:17:31;3.05;;;2.77;;
24637;SDS011;12773;50.162;8.548;2023-05-07T08:20:18;3.75;;;3.00;;
24637;SDS011;12773;50.162;8.548;2023-05-07T08:23:05;3.85;;;3.37;;
24637;SDS011;12773;50.162;8.548;2023-05-07T08:25:53;4.92;;;3.50;;
24637;SDS011;12773;50.162;8.548;2023-05-07T08:28:40;5.50;;;3.87;;
24637;SDS011;12773;50.162;8.548;2023-05-07T08:31:28;4.22;;;3.25;;
24637;SDS011;12773;50.162;8.548;2023-05-07T08:34:17;6.37;;;4.10;;
24637;SDS011;12773;50.162;8.548;2023-05-07T08:37:04;6.72;;;3.67;;
24637;SDS011;12773;50.162;8.548;2023-05-07T08:39:51;5.85;;;3.80;;
24637;SDS011;12773;50.162;8.548;2023-05-07T08:42:39;5.65;;;3.72;;
24637;SDS011;12773;50.162;8.548;2023-05-07T08:45:27;4.17;;;3.25;;
24637;SDS011;12773;50.162;8.548;2023-05-07T08:48:17;4.53;;;3.35;;
24637;SDS011;12773;50.162;8.548;2023-05-07T08:51:06;6.92;;;3.62;;
24637;SDS011;12773;50.162;8.548;2023-05-07T08:53:55;3.95;;;3.37;;
24637;SDS011;12773;50.162;8.548;2023-05-07T08:56:42;4.95;;;3.33;;
24637;SDS011;12773;50.162;8.548;2023-05-07T08:59:29;5.50;;;3.45;;
24637;SDS011;12773;50.162;8.548;2023-05-07T09:02:17;4.65;;;3.55;;
24637;SDS011;12773;50.162;8.548;2023-05-07T09:05:05;5.00;;;3.40;;
24637;SDS011;12773;50.162;8.548;2023-05-07T09:07:53;4.78;;;3.40;;
24637;SDS011;12773;50.162;8.548;2023-05-07T09:10:42;5.30;;;3.83;;
24637;SDS011;12773;50.162;8.548;2023-05-07T09:13:30;4.08;;;3.50;;
24637;SDS011;12773;50.162;8.548;2023-05-07T09:16:19;5.08;;;3.60;;
24637;SDS011;12773;50.162;8.548;2023-05-07T09:19:07;4.60;;;3.90;;
24637;SDS011;12773;50.162;8.548;2023-05-07T09:21:58;5.15;;;3.75;;
24637;SDS011;12773;50.162;8.548;2023-05-07T09:24:50;6.00;;;3.87;;
24637;SDS011;12773;50.162;8.548;2023-05-07T09:27:38;7.08;;;4.28;;
24637;SDS011;12773;50.162;8.548;2023-05-07T09:30:29;4.15;;;3.42;;
24637;SDS011;12773;50.162;8.548;2023-05-07T09:33:17;4.97;;;3.95;;
24637;SDS011;12773;50.162;8.548;2023-05-07T09:36:05;6.40;;;3.70;;
24637;SDS011;12773;50.162;8.548;2023-05-07T09:38:53;4.50;;;3.77;;
24637;SDS011;12773;50.162;8.548;2023-05-07T09:41:48;5.10;;;3.80;;
24637;SDS011;12773;50.162;8.548;2023-05-07T09:44:37;4.62;;;4.00;;
24637;SDS011;12773;50.162;8.548;2023-05-07T09:47:25;4.60;;;3.67;;
24637;SDS011;12773;50.162;8.548;2023-05-07T09:50:15;4.12;;;3.70;;
24637;SDS011;12773;50.162;8.548;2023-05-07T09:53:03;4.97;;;3.30;;
24637;SDS011;12773;50.162;8.548;2023-05-07T09:55:52;4.58;;;3.85;;
24637;SDS011;12773;50.162;8.548;2023-05-07T09:58:40;4.53;;;4.00;;
24637;SDS011;12773;50.162;8.548;2023-05-07T10:01:29;5.05;;;3.42;;
24637;SDS011;12773;50.162;8.548;2023-05-07T10:04:18;4.97;;;3.55;;
24637;SDS011;12773;50.162;8.548;2023-05-07T10:07:07;4.40;;;3.42;;
24637;SDS011;12773;50.162;8.548;2023-05-07T10:09:55;4.03;;;3.50;;
24637;SDS011;12773;50.162;8.548;2023-05-07T10:12:43;4.70;;;3.30;;
24637;SDS011;12773;50.162;8.548;2023-05-07T10:15:32;3.85;;;3.20;;
24637;SDS011;12773;50.162;8.548;2023-05-07T10:18:21;4.47;;;2.85;;
24637;SDS011;12773;50.162;8.548;2023-05-07T10:21:14;3.27;;;2.98;;
24637;SDS011;12773;50.162;8.548;2023-05-07T10:24:06;3.52;;;2.85;;
24637;SDS011;12773;50.162;8.548;2023-05-07T10:27:04;4.78;;;3.47;;
24637;SDS011;12773;50.162;8.548;2023-05-07T10:30:02;5.12;;;3.85;;
24637;SDS011;12773;50.162;8.548;2023-05-07T10:32:49;3.60;;;3.08;;
24637;SDS011;12773;50.162;8.548;2023-05-07T10:35:38;5.20;;;4.10;;
24637;SDS011;12773;50.162;8.548;2023-05-07T10:38:27;3.50;;;3.20;;
24637;SDS011;12773;50.162;8.548;2023-05-07T10:41:15;3.60;;;3.15;;
24637;SDS011;12773;50.162;8.548;2023-05-07T10:44:04;6.22;;;3.95;;
24637;SDS011;12773;50.162;8.548;2023-05-07T10:47:07;3.60;;;3.20;;
24637;SDS011;12773;50.162;8.548;2023-05-07T10:56:24;3.65;;;3.30;;
24637;SDS011;12773;50.162;8.548;2023-05-07T11:02:17;4.12;;;3.40;;
24637;SDS011;12773;50.162;8.548;2023-05-07T11:05:21;4.92;;;3.17;;
24637;SDS011;12773;50.162;8.548;2023-05-07T11:08:09;3.42;;;3.12;;
24637;SDS011;12773;50.162;8.548;2023-05-07T11:10:56;5.35;;;3.55;;
24637;SDS011;12773;50.162;8.548;2023-05-07T11:13:45;4.67;;;3.30;;
24637;SDS011;12773;50.162;8.548;2023-05-07T11:16:34;3.95;;;3.00;;
24637;SDS011;12773;50.162;8.548;2023-05-07T11:22:39;6.47;;;3.40;;
24637;SDS011;12773;50.162;8.548;2023-05-07T11:25:26;4.78;;;3.00;;
24637;SDS011;12773;50.162;8.548;2023-05-07T11:28:14;3.17;;;2.87;;
24637;SDS011;12773;50.162;8.548;2023-05-07T11:31:02;4.20;;;3.30;;
24637;SDS011;12773;50.162;8.548;2023-05-07T11:33:50;3.52;;;3.17;;
24637;SDS011;12773;50.162;8.548;2023-05-07T11:36:41;3.20;;;2.87;;
24637;SDS011;12773;50.162;8.548;2023-05-07T11:39:30;4.15;;;3.02;;
24637;SDS011;12773;50.162;8.548;2023-05-07T11:42:25;4.55;;;3.27;;
24637;SDS011;12773;50.162;8.548;2023-05-07T11:45:19;6.50;;;3.67;;
24637;SDS011;12773;50.162;8.548;2023-05-07T11:48:05;4.50;;;3.27;;
24637;SDS011;12773;50.162;8.548;2023-05-07T11:50:54;5.10;;;3.20;;
24637;SDS011;12773;50.162;8.548;2023-05-07T11:53:48;3.55;;;3.12;;
24637;SDS011;12773;50.162;8.548;2023-05-07T11:56:36;3.87;;;3.17;;
24637;SDS011;12773;50.162;8.548;2023-05-07T11:59:24;5.15;;;3.15;;
24637;SDS011;12773;50.162;8.548;2023-05-07T12:02:13;7.90;;;3.08;;
24637;SDS011;12773;50.162;8.548;2023-05-07T12:05:01;4.37;;;3.20;;
24637;SDS011;12773;50.162;8.548;2023-05-07T12:07:48;3.85;;;3.50;;
24637;SDS011;12773;50.162;8.548;2023-05-07T12:10:40;7.45;;;5.12;;
24637;SDS011;12773;50.162;8.548;2023-05-07T12:13:29;3.85;;;3.35;;
24637;SDS011;12773;50.162;8.548;2023-05-07T12:16:17;5.22;;;3.00;;
24637;SDS011;12773;50.162;8.548;2023-05-07T12:19:05;5.12;;;2.75;;
24637;SDS011;12773;50.162;8.548;2023-05-07T12:21:58;5.08;;;2.80;;
24637;SDS011;12773;50.162;8.548;2023-05-07T12:24:56;3.10;;;2.80;;
24637;SDS011;12773;50.162;8.548;2023-05-07T12:27:37;2.98;;;2.58;;
24637;SDS011;12773;50.162;8.548;2023-05-07T12:30:25;4.25;;;2.70;;
24637;SDS011;12773;50.162;8.548;2023-05-07T12:33:23;3.52;;;2.25;;
24637;SDS011;12773;50.162;8.548;2023-05-07T12:36:15;3.80;;;2.83;;
24637;SDS011;12773;50.162;8.548;2023-05-07T12:39:03;4.55;;;2.58;;
24637;SDS011;12773;50.162;8.548;2023-05-07T12:41:55;3.00;;;2.70;;
24637;SDS011;12773;50.162;8.548;2023-05-07T12:44:45;3.58;;;2.62;;
24637;SDS011;12773;50.162;8.548;2023-05-07T12:47:33;3.30;;;2.80;;
24637;SDS011;12773;50.162;8.548;2023-05-07T12:50:20;3.37;;;2.52;;
24637;SDS011;12773;50.162;8.548;2023-05-07T12:53:07;2.85;;;2.65;;
24637;SDS011;12773;50.162;8.548;2023-05-07T12:55:58;4.47;;;2.20;;
24637;SDS011;12773;50.162;8.548;2023-05-07T12:58:46;2.75;;;2.50;;
24637;SDS011;12773;50.162;8.548;2023-05-07T13:01:35;3.90;;;2.90;;
24637;SDS011;12773;50.162;8.548;2023-05-07T13:04:24;4.95;;;2.67;;
24637;SDS011;12773;50.162;8.548;2023-05-07T13:07:12;3.08;;;2.50;;
24637;SDS011;12773;50.162;8.548;2023-05-07T13:09:59;6.05;;;2.60;;
24637;SDS011;12773;50.162;8.548;2023-05-07T13:12:46;4.47;;;2.70;;
24637;SDS011;12773;50.162;8.548;2023-05-07T13:15:34;2.52;;;2.33;;
24637;SDS011;12773;50.162;8.548;2023-05-07T13:18:21;3.90;;;3.10;;
24637;SDS011;12773;50.162;8.548;2023-05-07T13:21:10;4.10;;;2.98;;
24637;SDS011;12773;50.162;8.548;2023-05-07T13:23:59;4.78;;;3.10;;
24637;SDS011;12773;50.162;8.548;2023-05-07T13:26:46;4.00;;;2.90;;
24637;SDS011;12773;50.162;8.548;2023-05-07T13:29:33;6.25;;;2.98;;
24637;SDS011;12773;50.162;8.548;2023-05-07T13:32:21;5.90;;;2.80;;
24637;SDS011;12773;50.162;8.548;2023-05-07T13:35:09;3.25;;;2.52;;
24637;SDS011;12773;50.162;8.548;2023-05-07T13:37:57;3.62;;;2.87;;
24637;SDS011;12773;50.162;8.548;2023-05-07T13:40:44;3.30;;;2.72;;
24637;SDS011;12773;50.162;8.548;2023-05-07T13:43:32;6.90;;;2.83;;
24637;SDS011;12773;50.162;8.548;2023-05-07T13:46:19;5.50;;;2.62;;
24637;SDS011;12773;50.162;8.548;2023-05-07T13:49:06;4.45;;;2.52;;
24637;SDS011;12773;50.162;8.548;2023-05-07T13:51:56;3.12;;;2.65;;
24637;SDS011;12773;50.162;8.548;2023-05-07T13:54:43;3.25;;;2.58;;
24637;SDS011;12773;50.162;8.548;2023-05-07T13:57:30;4.78;;;2.72;;
24637;SDS011;12773;50.162;8.548;2023-05-07T14:00:18;4.30;;;2.80;;
24637;SDS011;12773;50.162;8.548;2023-05-07T14:03:05;2.87;;;2.30;;
24637;SDS011;12773;50.162;8.548;2023-05-07T14:05:53;3.45;;;2.67;;
24637;SDS011;12773;50.162;8.548;2023-05-07T14:08:41;2.98;;;2.72;;
24637;SDS011;12773;50.162;8.548;2023-05-07T14:11:28;5.62;;;2.90;;
24637;SDS011;12773;50.162;8.548;2023-05-07T14:14:17;5.17;;;2.60;;
24637;SDS011;12773;50.162;8.548;2023-05-07T14:17:05;4.25;;;2.70;;
24637;SDS011;12773;50.162;8.548;2023-05-07T14:19:54;3.17;;;2.20;;
24637;SDS011;12773;50.162;8.548;2023-05-07T14:22:42;2.45;;;2.20;;
24637;SDS011;12773;50.162;8.548;2023-05-07T14:25:29;2.55;;;2.35;;
24637;SDS011;12773;50.162;8.548;2023-05-07T14:28:16;2.80;;;2.40;;
24637;SDS011;12773;50.162;8.548;2023-05-07T14:31:04;3.92;;;2.15;;
24637;SDS011;12773;50.162;8.548;2023-05-07T14:33:52;4.17;;;2.33;;
24637;SDS011;12773;50.162;8.548;2023-05-07T14:36:39;3.37;;;2.35;;
24637;SDS011;12773;50.162;8.548;2023-05-07T14:39:27;2.40;;;2.17;;
24637;SDS011;12773;50.162;8.548;2023-05-07T14:42:15;3.80;;;2.47;;
24637;SDS011;12773;50.162;8.548;2023-05-07T14:45:03;2.27;;;2.08;;
24637;SDS011;12773;50.162;8.548;2023-05-07T14:47:51;2.10;;;1.90;;
24637;SDS011;12773;50.162;8.548;2023-05-07T14:50:38;3.72;;;2.30;;
24637;SDS011;12773;50.162;8.548;2023-05-07T14:53:26;2.70;;;2.05;;
24637;SDS011;12773;50.162;8.548;2023-05-07T14:56:13;3.17;;;2.42;;
24637;SDS011;12773;50.162;8.548;2023-05-07T14:59:02;2.58;;;2.37;;
24637;SDS011;12773;50.162;8.548;2023-05-07T15:01:49;2.95;;;2.10;;
24637;SDS011;12773;50.162;8.548;2023-05-07T15:04:37;4.00;;;2.40;;
24637;SDS011;12773;50.162;8.548;2023-05-07T15:07:27;3.02;;;2.35;;
24637;SDS011;12773;50.162;8.548;2023-05-07T15:10:14;2.65;;;2.33;;
24637;SDS011;12773;50.162;8.548;2023-05-07T15:13:02;3.10;;;2.60;;
24637;SDS011;12773;50.162;8.548;2023-05-07T15:15:49;2.17;;;2.00;;
24637;SDS011;12773;50.162;8.548;2023-05-07T15:18:37;4.97;;;2.22;;
24637;SDS011;12773;50.162;8.548;2023-05-07T15:21:24;3.98;;;2.50;;
24637;SDS011;12773;50.162;8.548;2023-05-07T15:24:12;4.15;;;2.20;;
24637;SDS011;12773;50.162;8.548;2023-05-07T15:27:00;3.45;;;2.40;;
24637;SDS011;12773;50.162;8.548;2023-05-07T15:29:48;3.05;;;2.50;;
24637;SDS011;12773;50.162;8.548;2023-05-07T15:32:36;2.83;;;2.15;;
24637;SDS011;12773;50.162;8.548;2023-05-07T15:35:24;2.92;;;2.22;;
24637;SDS011;12773;50.162;8.548;2023-05-07T15:38:12;2.30;;;2.10;;
24637;SDS011;12773;50.162;8.548;2023-05-07T15:40:59;2.42;;;1.75;;
24637;SDS011;12773;50.162;8.548;2023-05-07T15:43:48;4.15;;;2.17;;
24637;SDS011;12773;50.162;8.548;2023-05-07T15:46:37;3.35;;;1.75;;
24637;SDS011;12773;50.162;8.548;2023-05-07T15:49:25;2.75;;;2.02;;
24637;SDS011;12773;50.162;8.548;2023-05-07T15:52:12;4.90;;;2.60;;
24637;SDS011;12773;50.162;8.548;2023-05-07T15:55:01;2.92;;;2.20;;
24637;SDS011;12773;50.162;8.548;2023-05-07T15:57:49;4.97;;;2.30;;
24637;SDS011;12773;50.162;8.548;2023-05-07T16:00:37;3.80;;;2.27;;
24637;SDS011;12773;50.162;8.548;2023-05-07T16:03:26;3.85;;;1.90;;
24637;SDS011;12773;50.162;8.548;2023-05-07T16:06:14;5.22;;;1.82;;
24637;SDS011;12773;50.162;8.548;2023-05-07T16:09:02;2.30;;;1.80;;
24637;SDS011;12773;50.162;8.548;2023-05-07T16:11:49;2.08;;;1.87;;
24637;SDS011;12773;50.162;8.548;2023-05-07T16:14:37;3.30;;;2.10;;
24637;SDS011;12773;50.162;8.548;2023-05-07T16:17:24;3.05;;;2.15;;
24637;SDS011;12773;50.162;8.548;2023-05-07T16:20:11;7.90;;;4.28;;
24637;SDS011;12773;50.162;8.548;2023-05-07T16:23:01;5.45;;;3.15;;
24637;SDS011;12773;50.162;8.548;2023-05-07T16:25:48;5.12;;;3.37;;
24637;SDS011;12773;50.162;8.548;2023-05-07T16:28:36;3.87;;;2.95;;
24637;SDS011;12773;50.162;8.548;2023-05-07T16:31:23;3.72;;;2.37;;
24637;SDS011;12773;50.162;8.548;2023-05-07T16:34:10;2.40;;;2.08;;
24637;SDS011;12773;50.162;8.548;2023-05-07T16:36:59;3.58;;;2.10;;
24637;SDS011;12773;50.162;8.548;2023-05-07T16:39:46;3.95;;;2.17;;
24637;SDS011;12773;50.162;8.548;2023-05-07T16:42:34;6.37;;;2.10;;
24637;SDS011;12773;50.162;8.548;2023-05-07T16:45:22;5.30;;;2.30;;
24637;SDS011;12773;50.162;8.548;2023-05-07T16:48:09;2.60;;;2.25;;
24637;SDS011;12773;50.162;8.548;2023-05-07T16:50:57;4.70;;;2.40;;
24637;SDS011;12773;50.162;8.548;2023-05-07T16:53:44;3.50;;;2.30;;
24637;SDS011;12773;50.162;8.548;2023-05-07T16:56:31;4.05;;;2.60;;
24637;SDS011;12773;50.162;8.548;2023-05-07T16:59:19;4.17;;;2.25;;
24637;SDS011;12773;50.162;8.548;2023-05-07T17:02:08;3.22;;;2.25;;
24637;SDS011;12773;50.162;8.548;2023-05-07T17:04:55;3.90;;;2.40;;
24637;SDS011;12773;50.162;8.548;2023-05-07T17:07:42;7.35;;;2.45;;